Terminal Aerodrome Forecast
Issued by NWS

Home | Current Version | Previous Version | Text Only | Print | Product List | Glossary Off
Versions: 1 2 3 4 5 6 7 8 9 10 11 12 13 14 15 16 17 18 19

380
FTUS43 KGRB 211720
TAFMTW
TAF
KMTW 211720Z 2118/2218 18008KT P6SM SCT050 BKN250
     FM220300 16006KT P6SM VCTS BKN090CB WS016/19035KT
      TEMPO 2204/2208 2SM TSRA BR BKN030CB
     FM220800 16006KT 3SM TSRA BR BKN025CB WS016/24050KT
     FM221100 18007KT 4SM BR VCSH BKN006 WS016/26040KT
     FM221400 23009G14KT P6SM BKN013
     FM221600 25010G18KT P6SM BKN022=

USA.gov is the U.S. government's official web portal to all federal, state and local government web resources and services.